createdAt,value
2022-09-15T00:00:30.202Z,98702.66
2022-09-15T00:01:17.158Z,98704.31
2022-09-15T00:02:04.168Z,98701.88
2022-09-15T00:02:51.231Z,98703.25
2022-09-15T00:03:38.623Z,98703.81
2022-09-15T00:04:25.659Z,98702.16
2022-09-15T00:05:12.920Z,98701.00
2022-09-15T00:05:59.769Z,98690.63
2022-09-15T00:06:46.720Z,98703.22
2022-09-15T00:07:33.445Z,98706.53
2022-09-15T00:08:20.401Z,98710.12
2022-09-15T00:09:07.247Z,98713.09
2022-09-15T00:09:53.930Z,98716.94
2022-09-15T00:10:52.700Z,98709.53
2022-09-15T00:11:39.639Z,98708.41
2022-09-15T00:12:27.419Z,98711.44
2022-09-15T00:13:15.020Z,98712.78
2022-09-15T00:14:03.698Z,98710.63
2022-09-15T00:14:50.361Z,98714.47
2022-09-15T00:15:37.111Z,98714.16
2022-09-15T00:16:25.462Z,98716.09
2022-09-15T00:17:12.275Z,98718.00
2022-09-15T00:17:59.060Z,98720.75
2022-09-15T00:18:46.600Z,98725.66
2022-09-15T00:19:33.360Z,98725.16
2022-09-15T00:20:21.570Z,98726.78
2022-09-15T00:21:11.607Z,98725.69
2022-09-15T00:21:58.462Z,98718.00
2022-09-15T00:22:45.250Z,98717.47
2022-09-15T00:23:31.960Z,98713.34
2022-09-15T00:24:18.699Z,98710.09
2022-09-15T00:25:06.162Z,98709.22
2022-09-15T00:25:53.452Z,98705.44
2022-09-15T00:26:40.299Z,98707.38
2022-09-15T00:27:27.582Z,98706.25
2022-09-15T00:28:15.861Z,98701.28
2022-09-15T00:29:03.360Z,98704.31
2022-09-15T00:29:50.059Z,98705.94
2022-09-15T00:30:49.781Z,98703.22
2022-09-15T00:31:36.690Z,98708.72
2022-09-15T00:32:23.489Z,98712.53
2022-09-15T00:33:10.641Z,98710.88
2022-09-15T00:34:02.611Z,98711.13
2022-09-15T00:34:51.019Z,98699.41
2022-09-15T00:35:39.484Z,98706.78
2022-09-15T00:36:26.943Z,98709.53
2022-09-15T00:37:13.899Z,98709.78
2022-09-15T00:38:00.660Z,98710.63
2022-09-15T00:38:47.649Z,98701.03
2022-09-15T00:39:34.770Z,98698.00
2022-09-15T00:40:21.566Z,98699.09
2022-09-15T00:41:10.600Z,98695.00
2022-09-15T00:41:57.398Z,98705.69
2022-09-15T00:42:44.280Z,98704.56
2022-09-15T00:43:51.707Z,98702.09
2022-09-15T00:44:53.890Z,98705.66
2022-09-15T00:45:40.734Z,98711.97
2022-09-15T00:46:33.920Z,98705.19
2022-09-15T00:47:29.479Z,98705.97
2022-09-15T00:48:19.619Z,98707.91
2022-09-15T00:49:07.980Z,98703.25
2022-09-15T00:49:59.781Z,98711.47
2022-09-15T00:50:53.476Z,98705.72
2022-09-15T00:51:51.290Z,98699.69
2022-09-15T00:52:49.671Z,98700.50
2022-09-15T00:53:37.281Z,98704.87
2022-09-15T00:54:36.740Z,98707.91
2022-09-15T00:55:36.047Z,98709.53
2022-09-15T00:56:23.790Z,98703.75
2022-09-15T00:57:16.109Z,98702.12
2022-09-15T00:58:08.390Z,98702.41
2022-09-15T00:58:59.579Z,98705.41
2022-09-15T00:59:47.430Z,98706.50
2022-09-15T01:00:35.099Z,98705.44
2022-09-15T01:01:24.067Z,98704.56
2022-09-15T01:02:21.889Z,98705.97
2022-09-15T01:03:08.651Z,98710.06
2022-09-15T01:03:55.599Z,98705.44
2022-09-15T01:04:42.939Z,98701.03
2022-09-15T01:05:43.181Z,98706.22
2022-09-15T01:06:52.701Z,98713.09
2022-09-15T01:07:47.260Z,98707.59
2022-09-15T01:08:38.820Z,98704.06
2022-09-15T01:09:34.347Z,98701.91
2022-09-15T01:10:28.213Z,98707.09
2022-09-15T01:11:17.201Z,98706.81
2022-09-15T01:12:04.827Z,98716.66
2022-09-15T01:12:53.300Z,98716.66
2022-09-15T01:13:40.050Z,98719.13
2022-09-15T01:14:26.840Z,98731.72
2022-09-15T01:15:13.900Z,98726.53
2022-09-15T01:16:21.114Z,98733.38
2022-09-15T01:17:50.212Z,98736.91
2022-09-15T01:18:55.181Z,98741.03
2022-09-15T01:20:16.221Z,98735.03
2022-09-15T01:21:08.600Z,98738.34
2022-09-15T01:22:04.069Z,98732.03
2022-09-15T01:22:57.015Z,98735.03
2022-09-15T01:23:55.679Z,98724.34
2022-09-15T01:25:14.500Z,98736.94
2022-09-15T01:26:19.381Z,98730.91
2022-09-15T01:28:01.719Z,98737.78
2022-09-15T01:29:22.350Z,98725.47
2022-09-15T01:30:22.902Z,98728.19
2022-09-15T01:31:25.760Z,98730.94
2022-09-15T01:33:04.286Z,98719.97
2022-09-15T01:33:54.089Z,98722.94
2022-09-15T01:34:54.040Z,98724.62
2022-09-15T01:35:59.549Z,98727.91
2022-09-15T01:36:57.050Z,98736.66
2022-09-15T01:38:12.072Z,98727.91
2022-09-15T01:39:03.060Z,98730.94
2022-09-15T01:39:50.605Z,98730.38
2022-09-15T01:40:42.179Z,98739.41
2022-09-15T01:41:39.170Z,98738.59
2022-09-15T01:42:27.712Z,98738.34
2022-09-15T01:43:16.250Z,98733.66
2022-09-15T01:44:08.843Z,98740.50
2022-09-15T01:44:59.630Z,98744.63
2022-09-15T01:45:47.583Z,98746.25
2022-09-15T01:46:38.980Z,98744.34
2022-09-15T01:47:28.140Z,98743.25
2022-09-15T01:48:16.685Z,98744.06
2022-09-15T01:49:04.569Z,98741.88
2022-09-15T01:49:55.263Z,98742.69
2022-09-15T01:50:49.931Z,98746.25
2022-09-15T01:51:37.337Z,98739.16
2022-09-15T01:52:24.759Z,98741.59
2022-09-15T01:53:17.109Z,98732.00
2022-09-15T01:54:05.940Z,98725.47
2022-09-15T01:54:56.679Z,98719.44
2022-09-15T01:55:49.103Z,98723.78
2022-09-15T01:56:37.728Z,98719.97
2022-09-15T01:57:24.707Z,98715.84
2022-09-15T01:58:11.591Z,98715.31
2022-09-15T01:58:58.380Z,98722.69
2022-09-15T01:59:45.169Z,98714.22
2022-09-15T02:00:34.343Z,98713.94
2022-09-15T02:02:06.600Z,98716.94
2022-09-15T02:02:58.520Z,98713.94
2022-09-15T02:03:45.220Z,98705.44
2022-09-15T02:04:38.790Z,98713.41
2022-09-15T02:05:30.469Z,98710.66
2022-09-15T02:06:33.959Z,98718.31
2022-09-15T02:07:32.081Z,98710.38
2022-09-15T02:08:25.547Z,98711.47
2022-09-15T02:09:15.409Z,98721.31
2022-09-15T02:10:19.240Z,98714.50
2022-09-15T02:11:20.509Z,98720.78
2022-09-15T02:12:43.673Z,98723.25
2022-09-15T02:13:43.123Z,98718.31
2022-09-15T02:14:39.260Z,98718.88
2022-09-15T02:15:37.389Z,98709.28
2022-09-15T02:16:26.216Z,98715.03
2022-09-15T02:17:16.780Z,98712.31
2022-09-15T02:18:03.890Z,98702.69
2022-09-15T02:19:06.850Z,98697.75
2022-09-15T02:19:56.910Z,98700.25
2022-09-15T02:20:57.900Z,98691.75
2022-09-15T02:22:08.190Z,98689.84
2022-09-15T02:22:57.391Z,98686.25
2022-09-15T02:23:51.100Z,98694.16
2022-09-15T02:24:44.560Z,98681.84
2022-09-15T02:25:34.302Z,98684.84
2022-09-15T02:26:24.742Z,98685.16
2022-09-15T02:27:24.219Z,98687.34
2022-09-15T02:28:12.151Z,98689.81
2022-09-15T02:29:00.670Z,98694.72
2022-09-15T02:29:48.039Z,98684.31
2022-09-15T02:30:40.690Z,98688.16
2022-09-15T02:31:28.244Z,98691.72
2022-09-15T02:32:16.830Z,98702.94
2022-09-15T02:33:06.920Z,98703.53
2022-09-15T02:34:04.059Z,98703.81
2022-09-15T02:34:51.840Z,98709.28
2022-09-15T02:35:39.500Z,98711.47
2022-09-15T02:36:27.779Z,98710.94
2022-09-15T02:37:15.199Z,98708.97
2022-09-15T02:38:03.609Z,98706.78
2022-09-15T02:38:53.760Z,98705.44
2022-09-15T02:39:44.412Z,98701.88
2022-09-15T02:40:32.513Z,98706.25
2022-09-15T02:41:19.999Z,98702.69
2022-09-15T02:42:07.171Z,98702.16
2022-09-15T02:42:56.163Z,98699.69
2022-09-15T02:43:47.770Z,98708.19
2022-09-15T02:44:35.450Z,98703.25
2022-09-15T02:45:23.245Z,98706.81
2022-09-15T02:46:10.074Z,98706.00
2022-09-15T02:46:58.681Z,98705.72
2022-09-15T02:47:46.050Z,98712.59
2022-09-15T02:48:32.760Z,98729.56
2022-09-15T02:49:20.309Z,98728.47
2022-09-15T02:50:07.449Z,98719.16
2022-09-15T02:50:54.142Z,98719.72
2022-09-15T02:51:40.920Z,98708.75
2022-09-15T02:52:27.591Z,98713.37
2022-09-15T02:53:14.429Z,98716.69
2022-09-15T02:54:01.229Z,98709.81
2022-09-15T02:54:48.279Z,98718.31
2022-09-15T02:55:35.293Z,98718.31
2022-09-15T02:56:22.470Z,98722.72
2022-09-15T02:57:09.479Z,98727.38
2022-09-15T02:57:59.800Z,98730.38
2022-09-15T02:58:46.600Z,98728.47
2022-09-15T02:59:52.459Z,98724.09
2022-09-15T03:00:39.326Z,98729.00
2022-09-15T03:01:31.904Z,98728.19
2022-09-15T03:02:20.548Z,98728.47
2022-09-15T03:03:07.339Z,98727.09
2022-09-15T03:03:54.011Z,98727.66
2022-09-15T03:04:40.709Z,98721.31
2022-09-15T03:05:29.742Z,98716.97
2022-09-15T03:06:16.628Z,98713.41
2022-09-15T03:07:03.431Z,98717.50
2022-09-15T03:07:50.400Z,98715.31
2022-09-15T03:08:37.069Z,98710.66
2022-09-15T03:09:23.779Z,98717.78
2022-09-15T03:10:12.560Z,98712.31
2022-09-15T03:10:59.311Z,98708.19
2022-09-15T03:11:45.980Z,98711.75
2022-09-15T03:12:41.881Z,98711.75
2022-09-15T03:13:28.662Z,98715.56
2022-09-15T03:14:15.400Z,98714.72
2022-09-15T03:15:02.160Z,98715.53
2022-09-15T03:15:48.870Z,98713.91
2022-09-15T03:16:36.263Z,98711.47
2022-09-15T03:17:23.032Z,98711.47
2022-09-15T03:18:09.731Z,98718.06
2022-09-15T03:18:57.281Z,98714.19
2022-09-15T03:19:44.300Z,98712.84
2022-09-15T03:20:31.200Z,98707.34
2022-09-15T03:21:18.821Z,98698.31
2022-09-15T03:22:05.540Z,98701.91
2022-09-15T03:22:52.249Z,98700.25
2022-09-15T03:23:39.419Z,98706.81
2022-09-15T03:24:26.180Z,98698.88
2022-09-15T03:25:13.618Z,98705.97
2022-09-15T03:26:00.410Z,98693.41
2022-09-15T03:26:48.212Z,98701.62
2022-09-15T03:27:35.751Z,98696.66
2022-09-15T03:28:22.429Z,98710.12
2022-09-15T03:29:09.109Z,98709.81
2022-09-15T03:29:55.820Z,98708.19
2022-09-15T03:30:42.580Z,98716.41
2022-09-15T03:31:29.321Z,98706.25
2022-09-15T03:32:16.117Z,98710.94
2022-09-15T03:33:02.870Z,98706.25
2022-09-15T03:33:49.719Z,98705.47
2022-09-15T03:34:36.559Z,98709.00
2022-09-15T03:35:23.240Z,98703.81
2022-09-15T03:36:10.281Z,98706.81
2022-09-15T03:36:56.959Z,98703.25
2022-09-15T03:37:43.679Z,98709.81
2022-09-15T03:38:31.070Z,98701.31
2022-09-15T03:39:17.859Z,98700.78
2022-09-15T03:40:05.394Z,98699.41
2022-09-15T03:41:02.433Z,98701.31
2022-09-15T03:41:49.190Z,98712.00
2022-09-15T03:42:35.979Z,98704.63
2022-09-15T03:43:22.742Z,98702.41
2022-09-15T03:44:09.456Z,98705.19
2022-09-15T03:44:56.179Z,98710.63
2022-09-15T03:45:43.074Z,98708.19
2022-09-15T03:46:29.840Z,98702.72
2022-09-15T03:47:16.840Z,98705.47
2022-09-15T03:48:06.929Z,98709.00
2022-09-15T03:48:53.819Z,98708.44
2022-09-15T03:49:40.699Z,98709.00
2022-09-15T03:50:27.338Z,98714.22
2022-09-15T03:51:14.480Z,98724.91
2022-09-15T03:52:01.404Z,98727.91
2022-09-15T03:52:48.110Z,98736.69
2022-09-15T03:53:35.871Z,98725.44
2022-09-15T03:54:22.559Z,98725.44
2022-09-15T03:55:09.589Z,98717.75
2022-09-15T03:55:56.270Z,98725.72
2022-09-15T03:56:43.161Z,98719.69
2022-09-15T03:57:29.882Z,98726.53
2022-09-15T03:58:17.783Z,98726.81
2022-09-15T03:59:08.270Z,98725.72
2022-09-15T03:59:54.922Z,98720.50
2022-09-15T04:00:41.642Z,98719.97
2022-09-15T04:01:29.820Z,98721.34
2022-09-15T04:02:16.589Z,98720.25
2022-09-15T04:03:03.593Z,98721.31
2022-09-15T04:03:51.525Z,98713.66
2022-09-15T04:04:38.482Z,98718.03
2022-09-15T04:05:25.221Z,98719.97
2022-09-15T04:06:12.071Z,98714.75
2022-09-15T04:06:58.745Z,98720.22
2022-09-15T04:07:45.514Z,98717.50
2022-09-15T04:08:32.390Z,98720.22
2022-09-15T04:09:20.470Z,98721.88
2022-09-15T04:10:08.175Z,98716.94
2022-09-15T04:10:55.179Z,98718.56
2022-09-15T04:11:42.881Z,98731.47
2022-09-15T04:12:32.253Z,98728.44
2022-09-15T04:13:19.090Z,98727.91
2022-09-15T04:14:05.810Z,98724.91
2022-09-15T04:14:52.637Z,98726.28
2022-09-15T04:15:41.421Z,98732.56
2022-09-15T04:16:28.511Z,98730.91
2022-09-15T04:17:16.339Z,98732.84
2022-09-15T04:18:04.280Z,98732.56
2022-09-15T04:18:52.260Z,98738.31
2022-09-15T04:19:39.389Z,98733.94
2022-09-15T04:20:26.040Z,98735.56
2022-09-15T04:21:15.929Z,98741.06
2022-09-15T04:22:02.620Z,98729.53
2022-09-15T04:22:49.530Z,98730.91
2022-09-15T04:23:36.260Z,98732.28
2022-09-15T04:24:23.020Z,98731.44
2022-09-15T04:25:10.000Z,98719.13
2022-09-15T04:26:05.059Z,98726.78
2022-09-15T04:26:51.740Z,98731.72
2022-09-15T04:27:38.846Z,98726.22
2022-09-15T04:28:26.573Z,98722.38
2022-09-15T04:29:15.529Z,98721.53
2022-09-15T04:30:02.557Z,98716.34
2022-09-15T04:30:49.289Z,98717.47
2022-09-15T04:31:36.131Z,98716.09
2022-09-15T04:32:22.866Z,98708.44
2022-09-15T04:33:09.609Z,98711.44
2022-09-15T04:33:57.299Z,98707.88
2022-09-15T04:34:44.101Z,98710.59
2022-09-15T04:35:30.898Z,98707.88
2022-09-15T04:36:21.232Z,98713.09
2022-09-15T04:37:07.930Z,98704.87
2022-09-15T04:37:54.860Z,98709.50
2022-09-15T04:38:42.734Z,98713.34
2022-09-15T04:39:29.691Z,98715.28
2022-09-15T04:40:16.437Z,98711.44
2022-09-15T04:41:04.180Z,98713.87
2022-09-15T04:41:50.811Z,98711.44
2022-09-15T04:42:37.579Z,98716.06
2022-09-15T04:43:25.300Z,98712.00
2022-09-15T04:44:12.039Z,98719.66
2022-09-15T04:44:58.780Z,98714.97
2022-09-15T04:45:45.510Z,98716.09
2022-09-15T04:46:32.455Z,98719.66
2022-09-15T04:47:19.632Z,98724.03
2022-09-15T04:48:06.320Z,98730.09
2022-09-15T04:48:53.020Z,98726.22
2022-09-15T04:49:39.870Z,98733.88
2022-09-15T04:50:26.599Z,98728.41
2022-09-15T04:51:16.159Z,98725.16
2022-09-15T04:52:06.601Z,98726.25
2022-09-15T04:52:55.809Z,98730.34
2022-09-15T04:53:43.120Z,98733.66
2022-09-15T04:54:29.810Z,98729.53
2022-09-15T04:55:16.683Z,98731.16
2022-09-15T04:56:08.781Z,98724.03
2022-09-15T04:56:55.550Z,98718.81
2022-09-15T04:57:42.310Z,98722.94
2022-09-15T04:58:29.059Z,98721.88
2022-09-15T04:59:17.009Z,98729.53
2022-09-15T05:00:06.720Z,98722.97
2022-09-15T05:00:53.641Z,98724.91
2022-09-15T05:01:40.563Z,98725.44
2022-09-15T05:02:27.440Z,98729.53
2022-09-15T05:03:14.378Z,98726.25
2022-09-15T05:04:04.149Z,98729.53
2022-09-15T05:04:51.698Z,98735.81
2022-09-15T05:05:38.741Z,98736.94
2022-09-15T05:06:30.110Z,98739.72
2022-09-15T05:07:17.001Z,98734.75
2022-09-15T05:08:04.246Z,98739.16
2022-09-15T05:08:52.973Z,98736.13
2022-09-15T05:09:39.880Z,98730.91
2022-09-15T05:10:28.040Z,98735.59
2022-09-15T05:11:15.579Z,98727.63
2022-09-15T05:12:02.869Z,98724.62
2022-09-15T05:12:49.620Z,98727.09
2022-09-15T05:13:37.439Z,98724.88
2022-09-15T05:14:24.089Z,98729.00
2022-09-15T05:15:11.290Z,98726.28
2022-09-15T05:16:04.520Z,98728.47
2022-09-15T05:16:51.322Z,98735.28
2022-09-15T05:17:38.093Z,98730.94
2022-09-15T05:18:24.819Z,98739.69
2022-09-15T05:19:13.512Z,98736.69
2022-09-15T05:20:00.860Z,98741.31
2022-09-15T05:20:47.629Z,98738.06
2022-09-15T05:21:34.290Z,98748.75
2022-09-15T05:22:21.002Z,98745.16
2022-09-15T05:23:07.669Z,98739.12
2022-09-15T05:23:54.472Z,98742.97
2022-09-15T05:24:41.259Z,98742.72
2022-09-15T05:25:28.420Z,98747.09
2022-09-15T05:26:20.520Z,98750.94
2022-09-15T05:27:07.359Z,98754.47
2022-09-15T05:27:54.153Z,98750.66
2022-09-15T05:28:41.255Z,98747.66
2022-09-15T05:29:28.036Z,98746.28
2022-09-15T05:30:36.287Z,98746.00
2022-09-15T05:31:24.852Z,98758.06
2022-09-15T05:32:11.658Z,98763.53
2022-09-15T05:32:58.370Z,98770.12
2022-09-15T05:33:46.311Z,98771.22
2022-09-15T05:34:33.030Z,98766.84
2022-09-15T05:35:20.129Z,98771.50
2022-09-15T05:36:07.451Z,98769.56
2022-09-15T05:36:54.079Z,98772.03
2022-09-15T05:37:40.760Z,98770.94
2022-09-15T05:38:29.740Z,98778.59
2022-09-15T05:39:16.620Z,98769.56
2022-09-15T05:40:08.282Z,98761.34
2022-09-15T05:40:56.039Z,98768.19
2022-09-15T05:41:42.781Z,98766.81
2022-09-15T05:42:30.580Z,98771.78
2022-09-15T05:43:18.532Z,98766.81
2022-09-15T05:44:05.428Z,98767.38
2022-09-15T05:44:52.099Z,98766.53
2022-09-15T05:45:38.871Z,98769.84
2022-09-15T05:46:26.444Z,98770.38
2022-09-15T05:47:13.300Z,98764.38
2022-09-15T05:48:00.009Z,98776.16
2022-09-15T05:48:47.229Z,98776.41
2022-09-15T05:49:34.130Z,98775.34
2022-09-15T05:50:20.900Z,98779.69
2022-09-15T05:51:08.071Z,98783.00
2022-09-15T05:51:54.762Z,98781.09
2022-09-15T05:52:41.512Z,98776.41
2022-09-15T05:53:28.510Z,98786.00
2022-09-15T05:54:15.232Z,98795.06
2022-09-15T05:55:01.959Z,98790.94
2022-09-15T05:55:49.280Z,98799.72
2022-09-15T05:56:36.068Z,98798.34
2022-09-15T05:57:22.851Z,98804.09
2022-09-15T05:58:09.902Z,98798.34
2022-09-15T05:58:57.187Z,98798.06
2022-09-15T05:59:44.140Z,98799.72
2022-09-15T06:00:30.850Z,98797.25
2022-09-15T06:01:23.053Z,98795.06
2022-09-15T06:02:11.468Z,98790.66
2022-09-15T06:02:58.257Z,98793.41
2022-09-15T06:03:45.854Z,98787.38
2022-09-15T06:04:34.290Z,98789.84
2022-09-15T06:05:21.092Z,98778.31
2022-09-15T06:06:08.220Z,98780.50
2022-09-15T06:06:54.994Z,98779.44
2022-09-15T06:07:41.790Z,98775.56
2022-09-15T06:08:33.301Z,98781.06
2022-09-15T06:09:20.120Z,98793.38
2022-09-15T06:10:07.519Z,98790.38
2022-09-15T06:10:54.218Z,98791.47
2022-09-15T06:11:41.147Z,98790.09
2022-09-15T06:12:27.961Z,98797.50
2022-09-15T06:13:15.260Z,98790.38
2022-09-15T06:14:03.447Z,98802.69
2022-09-15T06:14:51.217Z,98795.00
2022-09-15T06:15:37.909Z,98798.00
2022-09-15T06:16:25.430Z,98808.69
2022-09-15T06:17:12.280Z,98805.09
2022-09-15T06:17:59.031Z,98808.38
2022-09-15T06:18:46.949Z,98811.13
2022-09-15T06:19:33.664Z,98803.13
2022-09-15T06:20:21.029Z,98803.13
2022-09-15T06:21:10.971Z,98808.59
2022-09-15T06:21:57.721Z,98800.91
2022-09-15T06:22:45.939Z,98808.25
2022-09-15T06:23:32.783Z,98806.28
2022-09-15T06:24:19.756Z,98808.75
2022-09-15T06:25:07.245Z,98806.00
2022-09-15T06:25:53.980Z,98806.81
2022-09-15T06:26:40.744Z,98806.53
2022-09-15T06:27:27.500Z,98810.66
2022-09-15T06:28:14.259Z,98807.34
2022-09-15T06:29:02.481Z,98809.78
2022-09-15T06:29:49.170Z,98806.75
2022-09-15T06:30:39.540Z,98819.66
2022-09-15T06:31:28.124Z,98823.28
2022-09-15T06:32:15.022Z,98823.50
2022-09-15T06:33:01.810Z,98835.34
2022-09-15T06:33:53.535Z,98830.13
2022-09-15T06:34:40.459Z,98829.53
2022-09-15T06:35:27.240Z,98829.00
2022-09-15T06:36:15.220Z,98820.81
2022-09-15T06:37:01.879Z,98836.16
2022-09-15T06:37:48.661Z,98831.78
2022-09-15T06:38:35.410Z,98837.28
2022-09-15T06:39:22.131Z,98836.47
2022-09-15T06:40:09.414Z,98828.25
2022-09-15T06:40:57.760Z,98828.56
2022-09-15T06:42:01.930Z,98831.66
2022-09-15T06:42:55.091Z,98823.94
2022-09-15T06:43:42.425Z,98830.25
2022-09-15T06:44:29.480Z,98817.91
2022-09-15T06:45:16.190Z,98823.72
2022-09-15T06:46:09.317Z,98822.06
2022-09-15T06:46:56.100Z,98827.25
2022-09-15T06:47:42.791Z,98827.50
2022-09-15T06:48:30.347Z,98825.84
2022-09-15T06:49:17.374Z,98828.06
2022-09-15T06:50:05.205Z,98826.63
2022-09-15T06:50:55.512Z,98832.97
2022-09-15T06:51:42.426Z,98836.53
2022-09-15T06:52:29.249Z,98839.81
2022-09-15T06:53:16.002Z,98837.28
2022-09-15T06:54:03.480Z,98847.69
2022-09-15T06:54:50.200Z,98847.06
2022-09-15T06:55:36.843Z,98850.84
2022-09-15T06:56:24.140Z,98857.41
2022-09-15T06:57:10.880Z,98862.56
2022-09-15T06:57:57.739Z,98857.84
2022-09-15T06:58:45.323Z,98860.53
2022-09-15T06:59:32.099Z,98846.44
2022-09-15T07:00:20.299Z,98856.00
2022-09-15T07:01:13.229Z,98851.56
2022-09-15T07:02:04.727Z,98854.81
2022-09-15T07:02:52.213Z,98852.47
2022-09-15T07:03:40.573Z,98854.09
2022-09-15T07:04:27.511Z,98860.13
2022-09-15T07:05:14.362Z,98860.38
2022-09-15T07:06:01.093Z,98869.34
2022-09-15T07:06:48.401Z,98858.88
2022-09-15T07:07:35.094Z,98861.28
2022-09-15T07:08:21.810Z,98860.47
2022-09-15T07:09:08.641Z,98858.53
2022-09-15T07:09:55.859Z,98857.09
2022-09-15T07:10:46.720Z,98858.28
2022-09-15T07:11:33.411Z,98857.59
2022-09-15T07:12:20.100Z,98852.13
2022-09-15T07:13:06.941Z,98860.56
2022-09-15T07:13:53.930Z,98859.19
2022-09-15T07:14:40.711Z,98862.50
2022-09-15T07:15:27.619Z,98856.97
2022-09-15T07:16:15.097Z,98863.53
2022-09-15T07:17:01.900Z,98872.84
2022-09-15T07:17:48.580Z,98875.25
2022-09-15T07:18:39.726Z,98874.72
2022-09-15T07:19:29.260Z,98879.06
2022-09-15T07:20:16.022Z,98868.00
2022-09-15T07:21:05.999Z,98879.06
2022-09-15T07:21:53.064Z,98874.16
2022-09-15T07:22:52.439Z,98873.03
2022-09-15T07:23:40.300Z,98859.09
2022-09-15T07:24:27.084Z,98866.25
2022-09-15T07:25:13.850Z,98857.09
2022-09-15T07:26:20.561Z,98859.75
2022-09-15T07:27:08.988Z,98862.41
2022-09-15T07:27:55.722Z,98866.53
2022-09-15T07:28:44.092Z,98868.56
2022-09-15T07:29:33.789Z,98866.78
2022-09-15T07:30:22.757Z,98874.25
2022-09-15T07:31:11.769Z,98871.03
2022-09-15T07:31:58.614Z,98879.97
2022-09-15T07:32:45.441Z,98885.28
2022-09-15T07:33:32.589Z,98882.44
2022-09-15T07:34:19.242Z,98878.53
2022-09-15T07:35:06.412Z,98878.91
2022-09-15T07:35:53.294Z,98881.37
2022-09-15T07:36:40.003Z,98882.34
2022-09-15T07:37:26.721Z,98874.78
2022-09-15T07:38:13.457Z,98882.56
2022-09-15T07:39:00.215Z,98874.28
2022-09-15T07:39:47.001Z,98882.00
2022-09-15T07:40:34.379Z,98873.41
2022-09-15T07:41:26.780Z,98873.84
2022-09-15T07:42:15.391Z,98864.75
2022-09-15T07:43:02.369Z,98868.19
2022-09-15T07:43:50.791Z,98867.69
2022-09-15T07:44:37.584Z,98865.66
2022-09-15T07:45:24.398Z,98859.69
2022-09-15T07:46:11.113Z,98861.41
2022-09-15T07:46:57.946Z,98870.66
2022-09-15T07:47:44.730Z,98860.38
2022-09-15T07:48:33.150Z,98862.47
2022-09-15T07:49:19.869Z,98862.91
2022-09-15T07:50:07.169Z,98864.22
2022-09-15T07:50:53.941Z,98866.22
2022-09-15T07:51:40.669Z,98864.44
2022-09-15T07:52:27.340Z,98870.03
2022-09-15T07:53:14.019Z,98876.50
2022-09-15T07:54:00.904Z,98878.06
2022-09-15T07:54:47.650Z,98875.94
2022-09-15T07:55:34.481Z,98878.53
2022-09-15T07:56:22.217Z,98870.03
2022-09-15T07:57:08.981Z,98866.13
2022-09-15T07:57:59.980Z,98862.56
2022-09-15T07:58:47.795Z,98860.19
2022-09-15T07:59:37.171Z,98856.59
2022-09-15T08:00:26.915Z,98864.56
2022-09-15T08:01:17.899Z,98861.16
2022-09-15T08:02:04.735Z,98867.50
2022-09-15T08:02:51.459Z,98866.66
2022-09-15T08:03:42.980Z,98865.56
2022-09-15T08:04:29.776Z,98859.22
2022-09-15T08:05:16.926Z,98863.03
2022-09-15T08:06:04.013Z,98856.09
2022-09-15T08:06:52.251Z,98857.50
2022-09-15T08:07:40.180Z,98867.72
2022-09-15T08:08:27.328Z,98863.38
2022-09-15T08:09:17.491Z,98865.94
2022-09-15T08:10:04.399Z,98865.03
2022-09-15T08:10:51.110Z,98863.72
2022-09-15T08:11:37.800Z,98869.06
2022-09-15T08:12:24.518Z,98873.44
2022-09-15T08:13:11.220Z,98885.25
2022-09-15T08:14:01.315Z,98884.84
2022-09-15T08:14:48.053Z,98885.53
2022-09-15T08:15:37.080Z,98884.50
2022-09-15T08:16:24.692Z,98876.66
2022-09-15T08:17:11.883Z,98878.00
2022-09-15T08:17:58.783Z,98877.66
2022-09-15T08:18:46.047Z,98873.03
2022-09-15T08:19:34.030Z,98869.78
2022-09-15T08:20:21.528Z,98865.28
2022-09-15T08:21:10.717Z,98864.87
2022-09-15T08:21:58.181Z,98863.78
2022-09-15T08:22:45.824Z,98861.81
2022-09-15T08:23:33.220Z,98862.84
2022-09-15T08:24:20.071Z,98871.66
2022-09-15T08:25:07.340Z,98870.72
2022-09-15T08:25:54.120Z,98870.56
2022-09-15T08:26:42.321Z,98867.38
2022-09-15T08:27:29.090Z,98866.25
2022-09-15T08:28:15.893Z,98874.03
2022-09-15T08:29:02.550Z,98868.28
2022-09-15T08:29:49.329Z,98870.47
2022-09-15T08:30:36.295Z,98870.59
2022-09-15T08:31:24.566Z,98865.66
2022-09-15T08:32:12.210Z,98856.00
2022-09-15T08:32:58.939Z,98855.44
2022-09-15T08:33:50.081Z,98847.06
2022-09-15T08:34:36.923Z,98841.38
2022-09-15T08:35:23.742Z,98843.41
2022-09-15T08:36:13.660Z,98838.53
2022-09-15T08:37:00.411Z,98841.59
2022-09-15T08:37:47.528Z,98838.25
2022-09-15T08:38:34.720Z,98839.12
2022-09-15T08:39:21.467Z,98837.88
2022-09-15T08:40:15.984Z,98839.12
2022-09-15T08:41:34.084Z,98837.78
2022-09-15T08:42:24.211Z,98830.62
2022-09-15T08:43:19.461Z,98830.69
2022-09-15T08:44:30.639Z,98828.28
2022-09-15T08:45:24.921Z,98830.13
2022-09-15T08:46:16.604Z,98829.22
2022-09-15T08:47:35.600Z,98837.22
2022-09-15T08:48:27.708Z,98833.81
2022-09-15T08:49:50.012Z,98828.13
2022-09-15T08:50:42.309Z,98834.16
2022-09-15T08:51:34.711Z,98836.47
2022-09-15T08:52:44.657Z,98838.94
2022-09-15T08:53:45.519Z,98833.06
2022-09-15T08:54:33.191Z,98830.34
2022-09-15T08:55:39.868Z,98824.50
2022-09-15T08:56:29.270Z,98818.84
2022-09-15T08:57:20.440Z,98819.03
2022-09-15T08:58:13.010Z,98815.00
2022-09-15T08:59:00.035Z,98815.56
2022-09-15T08:59:46.860Z,98817.97
2022-09-15T09:00:33.630Z,98811.44
2022-09-15T09:01:27.133Z,98808.59
2022-09-15T09:02:23.542Z,98804.81
2022-09-15T09:03:24.380Z,98807.91
2022-09-15T09:04:19.870Z,98810.66
2022-09-15T09:05:43.280Z,98800.03
2022-09-15T09:06:57.280Z,98808.91
2022-09-15T09:08:01.390Z,98804.87
2022-09-15T09:09:12.960Z,98799.44
2022-09-15T09:10:12.810Z,98797.03
2022-09-15T09:11:19.219Z,98798.94
2022-09-15T09:12:47.470Z,98791.03
2022-09-15T09:13:42.599Z,98792.66
2022-09-15T09:14:35.038Z,98792.03
2022-09-15T09:15:27.390Z,98789.22
2022-09-15T09:16:26.704Z,98793.25
2022-09-15T09:17:13.421Z,98786.59
2022-09-15T09:18:20.655Z,98798.72
2022-09-15T09:19:35.209Z,98796.09
2022-09-15T09:20:29.403Z,98801.72
2022-09-15T09:21:36.380Z,98806.72
2022-09-15T09:22:30.550Z,98803.59
2022-09-15T09:23:23.999Z,98800.09
2022-09-15T09:24:17.704Z,98792.41
2022-09-15T09:25:21.136Z,98796.19
2022-09-15T09:26:12.680Z,98784.75
2022-09-15T09:26:59.685Z,98786.28
2022-09-15T09:27:46.850Z,98785.28
2022-09-15T09:28:40.503Z,98776.88
2022-09-15T09:29:51.499Z,98770.81
2022-09-15T09:30:39.284Z,98776.31
2022-09-15T09:31:27.812Z,98772.38
2022-09-15T09:32:25.280Z,98764.97
2022-09-15T09:33:24.380Z,98765.47
2022-09-15T09:34:20.888Z,98757.88
2022-09-15T09:35:21.892Z,98749.31
2022-09-15T09:36:10.241Z,98743.69
2022-09-15T09:37:02.680Z,98753.53
2022-09-15T09:37:50.949Z,98738.44
2022-09-15T09:38:43.495Z,98738.16
2022-09-15T09:39:30.210Z,98741.88
2022-09-15T09:40:17.643Z,98742.47
2022-09-15T09:41:27.081Z,98743.72
2022-09-15T09:42:16.959Z,98743.34
2022-09-15T09:43:03.669Z,98738.31
2022-09-15T09:43:52.418Z,98742.47
2022-09-15T09:44:40.550Z,98727.91
2022-09-15T09:45:27.758Z,98717.47
2022-09-15T09:46:16.692Z,98714.19
2022-09-15T09:47:04.270Z,98717.34
2022-09-15T09:47:50.880Z,98709.09